Time;durP1;ratioP1;P1;durP2;ratioP2;P2;SDS_P1;SDS_P2;PMS_P1;PMS_P2;Temp;Humidity;BMP_temperature;BMP_pressure;BME280_temperature;BME280_humidity;BME280_pressure;Samples;Min_cycle;Max_cycle;Signal;HPM_P1;HPM_P2
2023/02/25 00:00:33;;;;;;;29.25;6.53;;;4.50;99.90;;;;;;5036558;28;20049;-74
2023/02/25 00:02:59;;;;;;;26.10;5.88;;;4.50;99.90;;;;;;5027388;28;20054;-74
2023/02/25 00:05:32;;;;;;;35.00;6.82;;;4.50;99.90;;;;;;4999836;28;20519;-73
2023/02/25 00:08:00;;;;;;;30.63;6.82;;;4.50;99.90;;;;;;5026251;28;20087;-74
2023/02/25 00:10:26;;;;;;;32.58;7.28;;;4.40;99.90;;;;;;5008370;28;20041;-74
2023/02/25 00:12:52;;;;;;;29.92;5.90;;;4.50;99.90;;;;;;4990313;28;20424;-75
2023/02/25 00:15:18;;;;;;;35.33;6.55;;;4.50;99.90;;;;;;5010626;28;20120;-74
2023/02/25 00:17:44;;;;;;;33.50;6.97;;;4.50;99.90;;;;;;4993251;28;20041;-74
2023/02/25 00:20:12;;;;;;;32.17;7.28;;;4.50;99.90;;;;;;4993252;28;20065;-74
2023/02/25 00:22:38;;;;;;;30.08;6.38;;;4.50;99.90;;;;;;5021304;28;20118;-74
2023/02/25 00:25:04;;;;;;;32.88;6.18;;;4.50;99.90;;;;;;5013122;28;20095;-74
2023/02/25 00:27:30;;;;;;;28.63;5.85;;;4.50;99.90;;;;;;4997831;28;20539;-74
2023/02/25 00:29:56;;;;;;;34.55;7.00;;;4.50;99.90;;;;;;5014772;28;20237;-73
2023/02/25 00:32:22;;;;;;;35.13;7.00;;;4.50;99.90;;;;;;5031858;28;20530;-74
2023/02/25 00:34:48;;;;;;;32.85;6.45;;;4.50;99.90;;;;;;4998617;28;20050;-73
2023/02/25 00:37:14;;;;;;;33.22;7.18;;;4.50;99.90;;;;;;5033630;28;20147;-73
2023/02/25 00:39:42;;;;;;;32.92;7.47;;;4.50;99.90;;;;;;4985242;28;20045;-74
2023/02/25 00:42:15;;;;;;;29.73;5.97;;;4.50;99.90;;;;;;5010176;28;20041;-73
2023/02/25 00:44:50;;;;;;;30.40;6.65;;;4.50;99.90;;;;;;5014228;28;20041;-73
2023/02/25 00:47:18;;;;;;;23.02;5.20;;;4.50;99.90;;;;;;5006341;28;20416;-73
2023/02/25 00:49:46;;;;;;;29.27;6.85;;;4.60;99.90;;;;;;5006286;28;20481;-73
2023/02/25 00:52:13;;;;;;;25.92;5.25;;;4.60;99.90;;;;;;4999623;28;20077;-75
2023/02/25 00:54:42;;;;;;;21.35;5.00;;;4.60;99.90;;;;;;5010618;28;20125;-75
2023/02/25 00:57:08;;;;;;;25.77;6.00;;;4.50;99.90;;;;;;5018137;28;20396;-73
2023/02/25 00:59:34;;;;;;;22.70;5.28;;;4.60;99.90;;;;;;5011771;28;20049;-74
2023/02/25 01:02:00;;;;;;;24.85;6.03;;;4.60;99.90;;;;;;5014168;28;20049;-74
2023/02/25 01:04:26;;;;;;;29.73;6.32;;;4.60;99.90;;;;;;5007471;28;20044;-74
2023/02/25 01:06:53;;;;;;;28.15;5.80;;;4.70;99.90;;;;;;4974331;28;20054;-74
2023/02/25 01:09:19;;;;;;;31.05;6.50;;;4.70;99.90;;;;;;5016439;28;20049;-74
2023/02/25 01:11:46;;;;;;;27.40;6.20;;;4.70;99.90;;;;;;5006578;28;20068;-74
2023/02/25 01:14:18;;;;;;;25.58;5.97;;;4.70;99.90;;;;;;5021131;28;20084;-73
2023/02/25 01:16:45;;;;;;;26.83;5.78;;;4.70;99.90;;;;;;5036723;28;20037;-74
2023/02/25 01:19:18;;;;;;;30.98;5.82;;;4.60;99.90;;;;;;5021540;28;20511;-74
2023/02/25 01:21:47;;;;;;;28.08;6.00;;;4.70;99.90;;;;;;5017916;28;20385;-74
2023/02/25 01:24:24;;;;;;;28.52;6.10;;;4.60;99.90;;;;;;5004247;28;20059;-75
2023/02/25 01:26:53;;;;;;;30.88;6.50;;;4.70;99.90;;;;;;5020773;28;20493;-74
2023/02/25 01:29:25;;;;;;;24.48;5.22;;;4.70;99.90;;;;;;5004192;28;20135;-74
2023/02/25 01:31:56;;;;;;;24.13;5.47;;;4.70;99.90;;;;;;5026815;28;20106;-74
2023/02/25 01:34:23;;;;;;;26.30;5.90;;;4.70;99.90;;;;;;4996135;28;20911;-74
2023/02/25 01:36:49;;;;;;;24.98;5.85;;;4.60;99.90;;;;;;5017348;28;20037;-74
2023/02/25 01:39:17;;;;;;;25.13;5.15;;;4.60;99.90;;;;;;4983166;28;20806;-74
2023/02/25 01:41:45;;;;;;;25.90;5.03;;;4.70;99.90;;;;;;5019008;28;20048;-74
2023/02/25 01:44:18;;;;;;;26.85;5.53;;;4.60;99.90;;;;;;5006041;28;20411;-75
2023/02/25 01:46:53;;;;;;;24.85;5.40;;;4.60;99.90;;;;;;5030891;28;20045;-75
2023/02/25 01:49:33;;;;;;;27.48;6.18;;;4.70;99.90;;;;;;5009091;28;20598;-75
2023/02/25 01:52:13;;;;;;;25.50;6.05;;;4.70;99.90;;;;;;5032572;28;20041;-74
2023/02/25 01:54:40;;;;;;;34.35;5.95;;;4.70;99.90;;;;;;5022729;28;20045;-74
2023/02/25 01:57:09;;;;;;;30.27;7.05;;;4.70;99.90;;;;;;5019327;28;20068;-74
2023/02/25 01:59:37;;;;;;;27.20;5.78;;;4.70;99.90;;;;;;5006969;28;20053;-74
2023/02/25 02:02:18;;;;;;;28.40;5.63;;;4.70;99.90;;;;;;5006651;28;20057;-74
2023/02/25 02:04:49;;;;;;;29.52;5.35;;;4.70;99.90;;;;;;5017870;28;20087;-74
2023/02/25 02:07:17;;;;;;;27.70;5.97;;;4.70;99.90;;;;;;4990780;28;20140;-74
2023/02/25 02:09:55;;;;;;;25.52;6.32;;;4.60;99.90;;;;;;5019282;28;20120;-74
2023/02/25 02:12:35;;;;;;;27.55;5.70;;;4.70;99.90;;;;;;5015920;28;20042;-74
2023/02/25 02:15:05;;;;;;;26.02;5.82;;;4.70;99.90;;;;;;4997795;28;20366;-74
2023/02/25 02:17:57;;;;;;;26.65;5.50;;;4.70;99.90;;;;;;5016406;28;20508;-74
2023/02/25 02:20:41;;;;;;;29.08;6.28;;;4.70;99.90;;;;;;5021453;28;20053;-75
2023/02/25 02:23:29;;;;;;;32.55;7.07;;;4.70;99.90;;;;;;5032255;28;19936;-74
2023/02/25 02:26:04;;;;;;;25.55;5.97;;;4.70;99.90;;;;;;5039879;28;20053;-74
2023/02/25 02:28:59;;;;;;;34.00;7.05;;;4.70;99.90;;;;;;5036601;28;20132;-74
2023/02/25 02:31:38;;;;;;;19.48;5.47;;;4.70;99.90;;;;;;5005179;28;20050;-73
2023/02/25 02:34:25;;;;;;;28.42;6.15;;;4.70;99.90;;;;;;5008115;28;20064;-74
2023/02/25 02:36:56;;;;;;;26.02;5.50;;;4.80;99.90;;;;;;5027311;28;20512;-74
2023/02/25 02:39:57;;;;;;;26.65;4.90;;;4.70;99.90;;;;;;5020947;28;21102;-75
2023/02/25 02:42:26;;;;;;;25.25;5.85;;;4.80;99.90;;;;;;5027209;28;20046;-74
2023/02/25 02:45:12;;;;;;;30.65;5.95;;;4.70;99.90;;;;;;5015581;28;20049;-74
2023/02/25 02:47:45;;;;;;;20.90;5.13;;;4.70;99.90;;;;;;5006019;28;20114;-74
2023/02/25 02:50:32;;;;;;;25.65;6.07;;;4.70;99.90;;;;;;5004629;28;20049;-74
2023/02/25 02:53:04;;;;;;;24.65;5.40;;;4.70;99.90;;;;;;5032451;28;20603;-74
2023/02/25 02:55:57;;;;;;;28.08;5.47;;;4.70;99.90;;;;;;5039600;28;20525;-75
2023/02/25 02:58:26;;;;;;;24.52;5.32;;;4.70;99.90;;;;;;5034457;28;20061;-74
2023/02/25 03:01:30;;;;;;;23.92;5.82;;;4.80;99.90;;;;;;5019742;28;20140;-75
2023/02/25 03:04:02;;;;;;;26.25;5.32;;;4.80;99.90;;;;;;4996254;28;20106;-75
2023/02/25 03:06:35;;;;;;;29.52;5.90;;;4.80;99.90;;;;;;4998890;28;20443;-75
2023/02/25 03:09:09;;;;;;;24.25;4.97;;;4.90;99.90;;;;;;5006094;28;20061;-75
2023/02/25 03:11:35;;;;;;;26.85;5.10;;;4.90;99.90;;;;;;5016185;28;20497;-76
2023/02/25 03:14:01;;;;;;;28.20;5.70;;;4.80;99.90;;;;;;5023334;28;20119;-76
2023/02/25 03:16:38;;;;;;;23.70;5.32;;;4.80;99.90;;;;;;5031763;28;20087;-75
2023/02/25 03:19:28;;;;;;;23.38;5.78;;;4.80;99.90;;;;;;5016023;28;20136;-75
2023/02/25 03:21:56;;;;;;;;;;;4.80;99.90;;;;;;5014316;28;20046;-76
2023/02/25 03:24:28;;;;;;;26.65;5.20;;;4.80;99.90;;;;;;5023154;28;20383;-75
2023/02/25 03:26:54;;;;;;;20.38;5.10;;;4.80;99.90;;;;;;4999832;28;20046;-75
2023/02/25 03:29:27;;;;;;;16.42;5.05;;;4.70;99.90;;;;;;5009402;28;20099;-73
2023/02/25 03:32:02;;;;;;;21.13;4.93;;;4.60;99.90;;;;;;5010167;28;20127;-73
2023/02/25 03:34:49;;;;;;;21.58;4.68;;;4.60;99.90;;;;;;5007088;28;20386;-73
2023/02/25 03:37:22;;;;;;;19.63;4.25;;;4.50;99.90;;;;;;5019871;28;20480;-73
2023/02/25 03:39:56;;;;;;;21.13;5.97;;;4.50;99.90;;;;;;5019372;28;20052;-75
2023/02/25 03:42:32;;;;;;;16.50;4.25;;;4.50;99.90;;;;;;5025052;28;20109;-75
2023/02/25 03:45:02;;;;;;;20.23;4.47;;;4.60;99.90;;;;;;5031889;28;20057;-74
2023/02/25 03:47:32;;;;;;;19.05;4.70;;;4.60;99.90;;;;;;5003652;28;20121;-74
2023/02/25 03:50:01;;;;;;;22.23;4.40;;;4.50;99.90;;;;;;5015971;28;20491;-75
2023/02/25 03:52:28;;;;;;;18.77;4.00;;;4.50;99.90;;;;;;5024290;28;20049;-74
2023/02/25 03:54:57;;;;;;;19.73;4.75;;;4.40;99.90;;;;;;5018224;28;20044;-75
2023/02/25 03:57:25;;;;;;;23.00;5.75;;;4.40;99.90;;;;;;5040292;28;20376;-74
2023/02/25 03:59:55;;;;;;;22.83;3.88;;;4.40;99.90;;;;;;5021504;28;20140;-75
2023/02/25 04:02:29;;;;;;;23.95;6.03;;;4.40;99.90;;;;;;5032002;28;20520;-75
2023/02/25 04:04:56;;;;;;;21.73;5.63;;;4.40;99.90;;;;;;4996488;28;20103;-74
2023/02/25 04:07:22;;;;;;;22.08;3.97;;;4.40;99.90;;;;;;5008688;28;20552;-74
2023/02/25 04:09:48;;;;;;;19.77;4.68;;;4.40;99.90;;;;;;5015548;28;20540;-76
2023/02/25 04:12:14;;;;;;;16.65;3.80;;;4.40;99.90;;;;;;5025261;28;20045;-76
2023/02/25 04:14:40;;;;;;;13.40;3.30;;;4.40;99.90;;;;;;5039446;28;20535;-76
2023/02/25 04:17:10;;;;;;;15.75;4.72;;;4.50;99.90;;;;;;5009278;28;20060;-76
2023/02/25 04:19:36;;;;;;;13.02;3.85;;;4.40;99.90;;;;;;5024330;28;20579;-76
2023/02/25 04:22:01;;;;;;;14.73;3.80;;;4.40;99.90;;;;;;4998811;28;20125;-76
2023/02/25 04:24:28;;;;;;;15.63;3.70;;;4.50;99.90;;;;;;5020350;28;20053;-76
2023/02/25 04:26:57;;;;;;;10.57;2.28;;;4.50;99.90;;;;;;5023853;28;20077;-76
2023/02/25 04:29:26;;;;;;;13.15;2.53;;;4.50;99.90;;;;;;5007765;28;20050;-76
2023/02/25 04:31:52;;;;;;;13.88;2.80;;;4.50;99.90;;;;;;4997310;28;20125;-76
2023/02/25 04:34:18;;;;;;;15.82;3.35;;;4.50;99.90;;;;;;5003771;28;20506;-76
2023/02/25 04:36:45;;;;;;;15.95;4.93;;;4.50;99.90;;;;;;5009778;28;20057;-75
2023/02/25 04:39:12;;;;;;;13.38;3.38;;;4.50;99.90;;;;;;5012969;28;20057;-74
2023/02/25 04:41:39;;;;;;;18.55;3.38;;;4.40;99.90;;;;;;4999995;28;20131;-75
2023/02/25 04:44:06;;;;;;;12.00;3.03;;;4.40;99.90;;;;;;5042179;28;20137;-73
2023/02/25 04:46:34;;;;;;;17.25;2.75;;;4.50;99.90;;;;;;5012716;28;20214;-75
2023/02/25 04:49:00;;;;;;;14.68;2.42;;;4.50;99.90;;;;;;5029936;28;20088;-75
2023/02/25 04:51:26;;;;;;;12.27;2.28;;;4.50;99.90;;;;;;5001738;28;20079;-75
2023/02/25 04:53:52;;;;;;;14.40;2.40;;;4.50;99.90;;;;;;5032137;28;20049;-76
2023/02/25 04:56:18;;;;;;;12.70;2.83;;;4.50;99.90;;;;;;5023369;28;20049;-77
2023/02/25 04:58:44;;;;;;;16.25;2.50;;;4.50;99.90;;;;;;5008162;28;20045;-74
2023/02/25 05:01:11;;;;;;;11.40;2.53;;;4.60;99.90;;;;;;5005713;28;20053;-74
2023/02/25 05:03:37;;;;;;;13.73;3.03;;;4.60;99.90;;;;;;5005758;28;20134;-74
2023/02/25 05:06:04;;;;;;;9.43;2.03;;;4.60;99.90;;;;;;5018054;28;20447;-73
2023/02/25 05:08:30;;;;;;;6.65;1.25;;;4.50;99.90;;;;;;5026878;28;20058;-74
2023/02/25 05:10:56;;;;;;;8.50;1.60;;;4.60;99.90;;;;;;5037426;28;20045;-73
2023/02/25 05:13:22;;;;;;;8.35;1.63;;;4.50;99.90;;;;;;5007035;28;20102;-75
2023/02/25 05:15:49;;;;;;;6.63;1.13;;;4.50;99.90;;;;;;5029117;28;20096;-75
2023/02/25 05:18:15;;;;;;;6.10;1.38;;;4.60;99.90;;;;;;5031067;28;20509;-74
2023/02/25 05:20:46;;;;;;;5.53;0.80;;;4.40;99.90;;;;;;4996925;28;20054;-73
2023/02/25 05:23:12;;;;;;;5.20;0.95;;;4.30;99.90;;;;;;5002806;28;20037;-73
2023/02/25 05:25:41;;;;;;;5.75;1.23;;;4.30;99.90;;;;;;5031780;28;20045;-73
2023/02/25 05:28:10;;;;;;;7.18;1.10;;;4.20;99.90;;;;;;5016167;28;20049;-73
2023/02/25 05:30:37;;;;;;;8.00;1.25;;;4.10;99.90;;;;;;5018731;28;20340;-73
2023/02/25 05:33:03;;;;;;;5.10;1.10;;;4.10;99.90;;;;;;5005130;28;20049;-74
2023/02/25 05:35:31;;;;;;;8.18;1.58;;;4.00;99.90;;;;;;5039661;28;20072;-73
2023/02/25 05:37:57;;;;;;;7.78;1.05;;;4.10;99.90;;;;;;5001757;28;20408;-73
2023/02/25 05:40:23;;;;;;;7.53;1.05;;;4.00;99.90;;;;;;5008478;28;20049;-73
2023/02/25 05:42:49;;;;;;;7.70;1.70;;;3.90;99.90;;;;;;5021847;28;20041;-73
2023/02/25 05:45:16;;;;;;;5.93;1.92;;;3.90;99.90;;;;;;5010002;28;20053;-75
2023/02/25 05:47:45;;;;;;;7.25;1.25;;;3.90;99.90;;;;;;5006648;28;20056;-75
2023/02/25 05:50:11;;;;;;;8.32;1.50;;;3.90;99.90;;;;;;5003877;28;20045;-76
2023/02/25 05:52:37;;;;;;;7.10;1.27;;;3.90;99.90;;;;;;5015467;28;20136;-75
2023/02/25 05:55:03;;;;;;;6.82;1.92;;;3.90;99.90;;;;;;4987337;28;20060;-75
2023/02/25 05:57:29;;;;;;;5.07;1.42;;;3.90;99.90;;;;;;5005457;28;20083;-73
2023/02/25 05:59:55;;;;;;;8.35;1.60;;;3.80;99.90;;;;;;5041265;28;20496;-73
2023/02/25 06:02:21;;;;;;;5.85;1.40;;;3.80;99.90;;;;;;5004996;28;20052;-73
2023/02/25 06:04:47;;;;;;;9.93;2.10;;;3.80;99.90;;;;;;5000825;28;20501;-74
2023/02/25 06:07:14;;;;;;;5.28;1.90;;;3.80;99.90;;;;;;5003721;28;20045;-73
2023/02/25 06:09:39;;;;;;;5.28;1.85;;;3.80;99.90;;;;;;4972418;28;20186;-73
2023/02/25 06:12:06;;;;;;;8.93;1.80;;;3.70;99.90;;;;;;4992343;28;20037;-74
2023/02/25 06:14:32;;;;;;;6.50;1.50;;;3.70;99.90;;;;;;5004247;28;20064;-73
2023/02/25 06:16:58;;;;;;;9.13;1.60;;;3.70;99.90;;;;;;5023304;28;20088;-74
2023/02/25 06:19:25;;;;;;;9.13;1.88;;;3.70;99.90;;;;;;5010201;28;20186;-73
2023/02/25 06:21:53;;;;;;;7.93;1.70;;;3.80;99.90;;;;;;5040096;28;20048;-73
2023/02/25 06:24:23;;;;;;;5.60;1.95;;;3.80;99.90;;;;;;5002373;28;20045;-74
2023/02/25 06:26:49;;;;;;;7.10;1.58;;;3.80;99.90;;;;;;5008179;28;20519;-73
2023/02/25 06:29:15;;;;;;;7.45;1.42;;;3.80;99.90;;;;;;5031447;28;20096;-74
2023/02/25 06:31:42;;;;;;;7.28;1.80;;;3.80;99.90;;;;;;5016137;28;20100;-73
2023/02/25 06:34:07;;;;;;;8.48;1.25;;;3.80;99.90;;;;;;5020825;28;20151;-73
2023/02/25 06:36:33;;;;;;;8.48;1.80;;;3.80;99.90;;;;;;5018017;28;20504;-73
2023/02/25 06:39:00;;;;;;;8.48;1.65;;;3.80;99.90;;;;;;5002707;28;20117;-73
2023/02/25 06:41:26;;;;;;;7.28;1.50;;;3.80;99.90;;;;;;5019383;28;20070;-73
2023/02/25 06:43:52;;;;;;;8.25;2.17;;;3.80;99.90;;;;;;5022610;28;20566;-74
2023/02/25 06:46:24;;;;;;;9.10;1.63;;;3.80;99.90;;;;;;4998662;28;20050;-76
2023/02/25 06:48:50;;;;;;;7.25;1.90;;;3.80;99.90;;;;;;5019325;28;20064;-77
2023/02/25 06:51:16;;;;;;;12.80;1.88;;;3.90;99.90;;;;;;5014964;28;20048;-75
2023/02/25 06:53:43;;;;;;;7.30;2.20;;;3.80;99.90;;;;;;5031433;28;20046;-76
2023/02/25 06:56:14;;;;;;;7.07;1.20;;;3.90;99.90;;;;;;5035758;28;20076;-76
2023/02/25 06:58:39;;;;;;;;;;;3.90;99.90;;;;;;5005012;28;20509;-76
2023/02/25 07:01:07;;;;;;;7.43;1.48;;;3.80;99.90;;;;;;5026896;28;19925;-76
2023/02/25 07:03:33;;;;;;;6.80;1.42;;;3.80;99.90;;;;;;5013694;28;20133;-76
2023/02/25 07:06:02;;;;;;;10.93;2.53;;;3.80;99.90;;;;;;5003195;28;20058;-74
2023/02/25 07:08:28;;;;;;;7.15;1.50;;;3.70;99.90;;;;;;5008016;28;20053;-74
2023/02/25 07:10:53;;;;;;;5.50;1.67;;;3.70;99.90;;;;;;5002124;28;20038;-76
2023/02/25 07:13:19;;;;;;;5.30;0.90;;;3.70;99.90;;;;;;5021932;28;20103;-75
2023/02/25 07:15:45;;;;;;;8.75;1.10;;;3.70;99.90;;;;;;5009358;28;20234;-73
2023/02/25 07:18:17;;;;;;;4.40;1.40;;;3.70;99.90;;;;;;5024118;28;20056;-73
2023/02/25 07:20:43;;;;;;;7.93;1.70;;;3.70;99.90;;;;;;5022774;28;20053;-75
2023/02/25 07:23:08;;;;;;;6.25;1.85;;;3.60;99.90;;;;;;4990116;28;20118;-75
2023/02/25 07:25:36;;;;;;;4.80;1.85;;;3.60;99.90;;;;;;5023310;28;20570;-74
2023/02/25 07:28:02;;;;;;;7.30;1.65;;;3.60;99.90;;;;;;5023830;28;20085;-74
2023/02/25 07:30:28;;;;;;;2.50;0.90;;;3.60;99.90;;;;;;4995899;28;20136;-75
2023/02/25 07:32:55;;;;;;;4.25;1.33;;;3.60;99.90;;;;;;4985803;28;20050;-75
2023/02/25 07:35:21;;;;;;;5.13;2.40;;;3.50;99.90;;;;;;5015104;28;20119;-76
2023/02/25 07:37:47;;;;;;;4.78;1.30;;;3.50;99.90;;;;;;5005552;28;20049;-76
2023/02/25 07:40:15;;;;;;;6.38;1.30;;;3.60;99.90;;;;;;4995395;28;20111;-76
2023/02/25 07:42:42;;;;;;;5.07;0.85;;;3.50;99.90;;;;;;5013933;28;20139;-76
2023/02/25 07:45:09;;;;;;;6.50;1.52;;;3.50;99.90;;;;;;5023947;28;20046;-77
2023/02/25 07:47:39;;;;;;;5.38;1.10;;;3.50;99.90;;;;;;5012357;28;20049;-75
2023/02/25 07:50:06;;;;;;;5.18;1.23;;;3.50;99.90;;;;;;5002524;28;20513;-75
2023/02/25 07:52:32;;;;;;;6.78;1.15;;;3.60;99.90;;;;;;4996575;28;20381;-76
2023/02/25 07:54:58;;;;;;;5.40;1.30;;;3.60;99.90;;;;;;5003488;28;20052;-75
2023/02/25 07:57:27;;;;;;;7.43;1.45;;;3.60;99.90;;;;;;5002983;28;20052;-75
2023/02/25 07:59:53;;;;;;;5.35;1.50;;;3.70;99.90;;;;;;5017830;28;20053;-75
2023/02/25 08:02:20;;;;;;;5.30;1.20;;;3.70;99.90;;;;;;5005072;28;20046;-75
2023/02/25 08:04:46;;;;;;;7.63;1.67;;;3.80;99.90;;;;;;5002020;28;20088;-75
2023/02/25 08:07:12;;;;;;;6.90;1.55;;;3.70;99.90;;;;;;4986420;28;20519;-76
2023/02/25 08:09:38;;;;;;;5.72;1.20;;;3.80;99.90;;;;;;5007864;28;20120;-73
2023/02/25 08:12:04;;;;;;;8.68;1.88;;;3.80;99.90;;;;;;5035465;28;20435;-73
2023/02/25 08:14:30;;;;;;;9.67;2.60;;;3.90;99.90;;;;;;4987327;28;20080;-74
2023/02/25 08:16:56;;;;;;;9.07;1.77;;;3.90;99.90;;;;;;5008041;28;20076;-72
2023/02/25 08:19:22;;;;;;;12.05;2.33;;;4.00;99.90;;;;;;5006496;28;20045;-76
2023/02/25 08:21:48;;;;;;;7.60;2.03;;;4.10;99.90;;;;;;5028180;28;20045;-74
2023/02/25 08:24:14;;;;;;;9.33;2.03;;;4.20;99.90;;;;;;5003681;28;20394;-74
2023/02/25 08:26:40;;;;;;;14.90;3.13;;;4.30;99.90;;;;;;5005779;28;20268;-74
2023/02/25 08:29:06;;;;;;;9.07;2.20;;;4.50;99.90;;;;;;4999271;28;20045;-74
2023/02/25 08:31:33;;;;;;;7.30;1.73;;;4.50;99.90;;;;;;5015144;28;20041;-73
2023/02/25 08:33:59;;;;;;;11.30;1.67;;;4.70;99.90;;;;;;5026776;28;20052;-74
2023/02/25 08:36:27;;;;;;;10.95;2.40;;;4.80;99.90;;;;;;4994709;28;20059;-73
2023/02/25 08:38:58;;;;;;;7.53;1.73;;;5.00;99.90;;;;;;5019884;28;20038;-73
2023/02/25 08:41:25;;;;;;;;;;;5.10;99.90;;;;;;5001628;28;20073;-73
2023/02/25 08:43:53;;;;;;;7.43;1.88;;;5.30;99.90;;;;;;5014255;28;20414;-75
2023/02/25 08:46:20;;;;;;;10.60;2.38;;;5.30;99.90;;;;;;5036051;28;20053;-73
2023/02/25 08:48:48;;;;;;;12.32;3.00;;;5.40;99.90;;;;;;4997705;28;20280;-74
2023/02/25 08:51:15;;;;;;;9.13;2.42;;;5.30;99.90;;;;;;5007425;28;20095;-74
2023/02/25 08:53:40;;;;;;;9.18;2.22;;;5.20;99.90;;;;;;5035385;28;20136;-75
2023/02/25 08:56:08;;;;;;;8.75;2.20;;;5.10;99.90;;;;;;5020212;28;20133;-75
2023/02/25 08:58:35;;;;;;;12.10;2.38;;;5.10;99.90;;;;;;5007781;28;20092;-77
2023/02/25 09:01:07;;;;;;;14.38;2.72;;;5.00;99.90;;;;;;5024050;28;20057;-77
2023/02/25 09:03:36;;;;;;;13.00;2.58;;;4.90;99.90;;;;;;5025061;28;20060;-76
2023/02/25 09:06:02;;;;;;;10.93;2.40;;;4.90;99.90;;;;;;4991165;28;20454;-74
2023/02/25 09:08:30;;;;;;;10.38;2.50;;;4.90;99.90;;;;;;5021505;28;20049;-74
2023/02/25 09:10:56;;;;;;;14.23;2.55;;;5.00;99.90;;;;;;5013125;28;20049;-75
2023/02/25 09:13:22;;;;;;;11.32;2.85;;;5.00;99.90;;;;;;5017996;28;20046;-75
2023/02/25 09:15:57;;;;;;;12.18;2.80;;;5.00;99.90;;;;;;5023939;28;20617;-75
2023/02/25 09:18:23;;;;;;;11.35;2.80;;;5.20;99.90;;;;;;5043101;28;20405;-75
2023/02/25 09:20:50;;;;;;;11.85;2.58;;;5.10;99.90;;;;;;4993806;28;20045;-75
2023/02/25 09:23:16;;;;;;;11.75;2.78;;;5.20;99.90;;;;;;5038283;28;20049;-74
2023/02/25 09:25:43;;;;;;;12.45;2.28;;;5.30;99.90;;;;;;5029866;28;20049;-72
2023/02/25 09:28:13;;;;;;;8.02;2.30;;;5.40;99.90;;;;;;5007775;28;20053;-74
2023/02/25 09:30:39;;;;;;;11.38;2.28;;;5.40;99.90;;;;;;5011363;28;20076;-73
2023/02/25 09:33:04;;;;;;;12.32;2.67;;;5.40;99.90;;;;;;5018867;28;20155;-73
2023/02/25 09:35:30;;;;;;;11.10;2.30;;;5.40;99.90;;;;;;4999092;28;20066;-72
2023/02/25 09:37:57;;;;;;;12.77;2.72;;;5.40;99.90;;;;;;5034734;28;20570;-73
2023/02/25 09:40:23;;;;;;;12.05;2.67;;;5.30;99.90;;;;;;5036128;28;20057;-72
2023/02/25 09:43:00;;;;;;;8.98;2.42;;;5.30;99.90;;;;;;4995404;28;20045;-75
2023/02/25 09:45:26;;;;;;;12.07;2.63;;;5.30;99.90;;;;;;5016063;28;20390;-73
2023/02/25 09:48:00;;;;;;;13.52;2.70;;;5.30;99.90;;;;;;5034676;28;20516;-74
2023/02/25 09:50:29;;;;;;;11.30;2.90;;;5.40;99.90;;;;;;5029452;28;20056;-71
2023/02/25 09:53:26;;;;;;;11.80;2.33;;;5.50;99.90;;;;;;5013401;28;20037;-72
2023/02/25 09:55:52;;;;;;;14.90;3.20;;;5.50;99.90;;;;;;5023548;28;20045;-71
2023/02/25 09:58:35;;;;;;;13.15;2.75;;;5.60;99.90;;;;;;5013428;28;20535;-72
2023/02/25 10:01:10;;;;;;;12.45;2.55;;;5.50;99.90;;;;;;5021996;28;20049;-74
2023/02/25 10:04:01;;;;;;;12.80;2.50;;;5.50;99.90;;;;;;5013232;28;20041;-72
2023/02/25 10:06:34;;;;;;;10.98;2.28;;;5.40;99.90;;;;;;5012636;28;20061;-72
2023/02/25 10:09:06;;;;;;;8.88;1.98;;;5.40;99.90;;;;;;5016769;28;20080;-73
2023/02/25 10:11:41;;;;;;;9.40;2.45;;;5.40;99.90;;;;;;4996420;28;20049;-72
2023/02/25 10:14:26;;;;;;;8.15;1.92;;;5.50;99.90;;;;;;5033517;28;20042;-72
2023/02/25 10:17:20;;;;;;;8.15;1.95;;;5.50;99.40;;;;;;5005657;28;20049;-72
2023/02/25 10:20:17;;;;;;;8.52;1.92;;;5.60;96.90;;;;;;5004366;28;20276;-73
2023/02/25 10:23:01;;;;;;;10.25;2.47;;;5.70;94.90;;;;;;5018066;28;20523;-73
2023/02/25 10:25:33;;;;;;;7.80;2.10;;;5.80;94.10;;;;;;5029599;28;20108;-72
2023/02/25 10:28:02;;;;;;;10.30;2.22;;;5.80;92.50;;;;;;5034802;28;20053;-75
2023/02/25 10:30:49;;;;;;;9.55;2.25;;;5.80;93.20;;;;;;5032862;28;20061;-75
2023/02/25 10:33:28;;;;;;;7.75;1.92;;;5.80;94.10;;;;;;5020480;28;20079;-72
2023/02/25 10:36:06;;;;;;;7.85;1.92;;;5.90;91.80;;;;;;5026713;28;20060;-72
2023/02/25 10:38:34;;;;;;;11.60;2.35;;;5.90;91.00;;;;;;5010073;28;20044;-72
2023/02/25 10:40:59;;;;;;;9.95;2.20;;;5.90;90.90;;;;;;5034349;28;20042;-76
2023/02/25 10:43:26;;;;;;;9.07;1.88;;;5.80;90.70;;;;;;5017097;28;20049;-71
2023/02/25 10:46:32;;;;;;;9.98;2.00;;;5.60;90.10;;;;;;5014471;28;20184;-73
2023/02/25 10:49:13;;;;;;;7.05;1.85;;;5.60;90.90;;;;;;5026813;28;20053;-71
2023/02/25 10:52:04;;;;;;;7.72;2.08;;;5.70;89.00;;;;;;5020262;28;20107;-72
2023/02/25 10:54:32;;;;;;;7.65;1.50;;;5.80;80.50;;;;;;5040696;28;20056;-72
2023/02/25 10:57:08;;;;;;;7.97;1.80;;;5.70;83.50;;;;;;5017950;28;20041;-71
2023/02/25 10:59:38;;;;;;;5.88;1.55;;;5.90;79.10;;;;;;5030581;28;20434;-73
2023/02/25 11:02:29;;;;;;;8.05;1.15;;;5.90;77.60;;;;;;5034356;28;20468;-74
2023/02/25 11:04:56;;;;;;;6.82;1.23;;;5.80;75.20;;;;;;5010083;28;20107;-72
2023/02/25 11:07:38;;;;;;;4.68;1.27;;;5.80;74.20;;;;;;5007607;28;20054;-72
2023/02/25 11:10:15;;;;;;;6.63;1.20;;;5.90;72.90;;;;;;5019841;28;20096;-71
2023/02/25 11:12:44;;;;;;;6.53;1.30;;;5.90;67.90;;;;;;5010851;28;20120;-71
2023/02/25 11:15:26;;;;;;;6.03;0.80;;;5.90;69.60;;;;;;5019075;28;20045;-73
2023/02/25 11:17:53;;;;;;;6.75;1.33;;;5.80;72.20;;;;;;5012970;28;20053;-71
2023/02/25 11:20:26;;;;;;;6.70;1.40;;;5.90;70.00;;;;;;5029079;28;20041;-70
2023/02/25 11:22:53;;;;;;;6.40;1.40;;;5.80;69.20;;;;;;5009885;28;20049;-73
2023/02/25 11:25:31;;;;;;;7.85;1.52;;;5.70;73.70;;;;;;5001284;28;20477;-72
2023/02/25 11:27:57;;;;;;;6.90;1.70;;;5.60;75.90;;;;;;5027182;28;20125;-71
2023/02/25 11:30:31;;;;;;;6.85;1.85;;;5.60;77.40;;;;;;5024222;28;20064;-72
2023/02/25 11:32:58;;;;;;;5.43;1.40;;;5.70;75.60;;;;;;5014848;28;20049;-74
2023/02/25 11:35:34;;;;;;;5.05;1.38;;;5.80;74.20;;;;;;5012683;28;20060;-72
2023/02/25 11:38:23;;;;;;;3.47;1.00;;;5.90;71.10;;;;;;4995914;28;20107;-72
2023/02/25 11:40:49;;;;;;;5.47;1.13;;;5.80;69.50;;;;;;5036812;28;20116;-74
2023/02/25 11:43:19;;;;;;;3.70;1.00;;;5.80;67.50;;;;;;5025959;28;20053;-71
2023/02/25 11:45:56;;;;;;;;;;;5.90;66.90;;;;;;5019510;28;20598;-72
2023/02/25 11:48:47;;;;;;;7.38;1.83;;;5.80;71.10;;;;;;5010413;28;20019;-72
2023/02/25 11:51:23;;;;;;;8.63;1.85;;;5.80;72.80;;;;;;5008256;28;20053;-72
2023/02/25 11:54:15;;;;;;;10.15;1.88;;;5.90;74.90;;;;;;4999983;28;20653;-73
2023/02/25 11:56:54;;;;;;;7.10;1.60;;;5.90;75.60;;;;;;5013506;28;20053;-76
2023/02/25 11:59:44;;;;;;;6.75;1.67;;;5.90;73.30;;;;;;5023012;28;20064;-73
2023/02/25 12:02:26;;;;;;;7.47;1.30;;;6.00;72.40;;;;;;5013752;28;20058;-75
2023/02/25 12:05:17;;;;;;;5.15;1.20;;;6.00;71.80;;;;;;5020789;28;20489;-71
2023/02/25 12:08:01;;;;;;;7.78;1.40;;;5.90;70.20;;;;;;5037587;28;20046;-71
2023/02/25 12:10:54;;;;;;;9.48;1.85;;;6.00;70.40;;;;;;5015911;28;20053;-74
2023/02/25 12:13:40;;;;;;;5.45;1.30;;;6.20;68.50;;;;;;5023646;28;20071;-73
2023/02/25 12:16:44;;;;;;;8.05;1.50;;;6.10;69.90;;;;;;5000480;28;20095;-74
2023/02/25 12:19:36;;;;;;;6.85;1.50;;;6.10;73.50;;;;;;5019814;28;20306;-73
2023/02/25 12:22:35;;;;;;;7.30;1.52;;;6.20;73.20;;;;;;5020988;28;20535;-73
2023/02/25 12:25:27;;;;;;;7.27;1.57;;;6.30;72.10;;;;;;5009287;28;20054;-72
2023/02/25 12:28:28;;;;;;;7.93;1.83;;;6.10;73.30;;;;;;5005427;28;20648;-72
2023/02/25 12:30:53;;;;;;;;;;;6.20;74.60;;;;;;5024986;28;20054;-73
2023/02/25 12:33:28;;;;;;;4.68;1.27;;;6.20;74.30;;;;;;5020806;28;19927;-72
2023/02/25 12:36:07;;;;;;;7.60;1.48;;;6.40;73.30;;;;;;5010541;28;20141;-74
2023/02/25 12:39:03;;;;;;;7.47;1.98;;;6.40;70.30;;;;;;5014125;28;20449;-74
2023/02/25 12:41:39;;;;;;;6.75;1.33;;;6.40;69.50;;;;;;5014988;28;20093;-72
2023/02/25 12:44:26;;;;;;;5.88;1.38;;;6.40;66.80;;;;;;5038163;28;20106;-74
2023/02/25 12:47:34;;;;;;;5.43;1.10;;;6.40;66.90;;;;;;5012456;28;20055;-73
2023/02/25 12:50:24;;;;;;;7.78;1.77;;;6.40;69.60;;;;;;5017367;28;20740;-73
2023/02/25 12:53:06;;;;;;;6.07;1.60;;;6.40;69.00;;;;;;5022296;28;20081;-73
2023/02/25 12:56:16;;;;;;;8.55;1.20;;;6.40;68.00;;;;;;5007538;28;20048;-74
2023/02/25 12:59:27;;;;;;;9.55;1.83;;;6.50;68.60;;;;;;4903529;29;20054;-73
2023/02/25 13:02:16;;;;;;;7.85;1.83;;;6.50;65.30;;;;;;4917693;29;20463;-73
2023/02/25 13:05:01;;;;;;;8.07;1.50;;;6.50;66.90;;;;;;5009503;28;20408;-74
2023/02/25 13:07:49;;;;;;;6.13;1.30;;;6.50;67.90;;;;;;5003009;28;20068;-74
2023/02/25 13:10:38;;;;;;;6.55;1.80;;;6.40;66.70;;;;;;5021224;28;20488;-74
2023/02/25 13:13:34;;;;;;;7.53;2.22;;;6.50;67.40;;;;;;5009316;28;20509;-72
2023/02/25 13:16:19;;;;;;;7.30;1.55;;;6.50;69.00;;;;;;5012613;28;20057;-75
2023/02/25 13:18:55;;;;;;;6.00;1.40;;;6.40;68.10;;;;;;5013357;28;20483;-72